createdAt,value
2023-05-07T00:00:46.714Z,3.50
2023-05-07T00:03:16.358Z,3.30
2023-05-07T00:05:44.254Z,3.60
2023-05-07T00:08:12.576Z,3.27
2023-05-07T00:10:40.425Z,3.93
2023-05-07T00:13:08.307Z,3.20
2023-05-07T00:15:36.142Z,3.33
2023-05-07T00:18:03.999Z,3.20
2023-05-07T00:20:34.422Z,3.23
2023-05-07T00:23:04.021Z,2.87
2023-05-07T00:25:31.819Z,2.70
2023-05-07T00:28:03.661Z,3.00
2023-05-07T00:30:31.658Z,3.03
2023-05-07T00:32:59.562Z,3.30
2023-05-07T00:35:27.581Z,2.90
2023-05-07T00:37:56.857Z,3.60
2023-05-07T00:40:24.766Z,3.60
2023-05-07T00:42:53.917Z,3.30
2023-05-07T00:45:21.736Z,2.97
2023-05-07T00:47:49.665Z,3.10
2023-05-07T00:50:18.079Z,3.10
2023-05-07T00:52:45.925Z,3.17
2023-05-07T00:55:15.597Z,3.47
2023-05-07T00:57:43.950Z,3.00
2023-05-07T01:00:13.859Z,3.33
2023-05-07T01:02:42.660Z,3.23
2023-05-07T01:05:14.790Z,3.67
2023-05-07T01:07:44.044Z,3.43
2023-05-07T01:10:13.758Z,3.53
2023-05-07T01:12:44.083Z,4.00
2023-05-07T01:15:12.947Z,3.70
2023-05-07T01:17:43.605Z,3.20
2023-05-07T01:20:13.014Z,2.77
2023-05-07T01:22:42.744Z,3.20
2023-05-07T01:25:10.850Z,2.63
2023-05-07T01:27:39.033Z,3.27
2023-05-07T01:30:08.200Z,3.23
2023-05-07T01:32:41.237Z,3.03
2023-05-07T01:35:12.931Z,3.30
2023-05-07T01:37:42.720Z,3.87
2023-05-07T01:40:11.765Z,3.43
2023-05-07T01:42:40.186Z,3.57
2023-05-07T01:45:09.138Z,3.40
2023-05-07T01:47:38.338Z,3.10
2023-05-07T01:50:09.488Z,3.20
2023-05-07T01:52:39.350Z,2.97
2023-05-07T01:55:09.675Z,3.00
2023-05-07T01:57:37.896Z,3.23
2023-05-07T02:00:07.039Z,2.70
2023-05-07T02:02:35.131Z,3.00
2023-05-07T02:05:03.218Z,3.20
2023-05-07T02:07:31.081Z,3.30
2023-05-07T02:09:58.971Z,3.27
2023-05-07T02:12:28.147Z,3.00
2023-05-07T02:14:56.008Z,3.10
2023-05-07T02:17:23.844Z,2.73
2023-05-07T02:19:51.704Z,3.20
2023-05-07T02:22:19.526Z,3.50
2023-05-07T02:24:47.355Z,3.57
2023-05-07T02:27:15.206Z,3.30
2023-05-07T02:29:44.770Z,3.30
2023-05-07T02:32:12.602Z,3.13
2023-05-07T02:34:40.454Z,2.93
2023-05-07T02:37:08.291Z,3.37
2023-05-07T02:39:36.115Z,3.83
2023-05-07T02:42:03.952Z,4.00
2023-05-07T02:44:32.580Z,3.73
2023-05-07T02:47:01.868Z,3.73
2023-05-07T02:49:29.689Z,3.50
2023-05-07T02:52:01.266Z,3.43
2023-05-07T02:54:29.083Z,3.50
2023-05-07T02:56:57.354Z,3.33
2023-05-07T02:59:26.259Z,3.83
2023-05-07T03:01:54.141Z,3.33
2023-05-07T03:04:23.413Z,3.20
2023-05-07T03:06:51.221Z,3.03
2023-05-07T03:09:19.065Z,2.97
2023-05-07T03:11:47.000Z,3.53
2023-05-07T03:14:14.828Z,3.13
2023-05-07T03:16:42.659Z,3.27
2023-05-07T03:19:10.516Z,3.60
2023-05-07T03:21:39.732Z,3.70
2023-05-07T03:24:12.240Z,3.70
2023-05-07T03:26:40.062Z,3.97
2023-05-07T03:29:07.942Z,3.57
2023-05-07T03:31:35.808Z,3.40
2023-05-07T03:34:03.699Z,3.27
2023-05-07T03:36:31.619Z,3.67
2023-05-07T03:39:00.784Z,3.90
2023-05-07T03:41:28.650Z,4.20
2023-05-07T03:43:56.541Z,3.90
2023-05-07T03:46:27.138Z,4.00
2023-05-07T03:48:55.110Z,4.07
2023-05-07T03:51:23.002Z,3.80
2023-05-07T03:53:50.965Z,3.80
2023-05-07T03:56:20.189Z,4.20
2023-05-07T03:58:48.051Z,4.10
2023-05-07T04:01:16.290Z,3.90
2023-05-07T04:03:44.238Z,3.37
2023-05-07T04:06:13.066Z,3.83
2023-05-07T04:08:40.832Z,3.40
2023-05-07T04:11:08.662Z,3.57
2023-05-07T04:13:37.862Z,3.77
2023-05-07T04:16:07.310Z,3.60
2023-05-07T04:18:36.179Z,3.60
2023-05-07T04:21:04.232Z,3.30
2023-05-07T04:23:32.260Z,3.37
2023-05-07T04:26:00.445Z,3.70
2023-05-07T04:28:28.260Z,3.93
2023-05-07T04:30:57.537Z,3.77
2023-05-07T04:33:25.385Z,3.00
2023-05-07T04:35:53.249Z,3.10
2023-05-07T04:38:21.076Z,2.83
2023-05-07T04:40:48.956Z,2.60
2023-05-07T04:43:17.126Z,2.60
2023-05-07T04:45:44.976Z,2.50
2023-05-07T04:48:15.613Z,2.73
2023-05-07T04:50:43.420Z,2.43
2023-05-07T04:53:11.918Z,2.40
2023-05-07T04:55:39.725Z,3.03
2023-05-07T04:58:07.899Z,2.37
2023-05-07T05:00:35.720Z,2.37
2023-05-07T05:03:03.925Z,2.63
2023-05-07T05:05:33.153Z,2.30
2023-05-07T05:08:01.058Z,2.50
2023-05-07T05:10:28.912Z,2.53
2023-05-07T05:12:56.930Z,2.37
2023-05-07T05:15:24.983Z,2.90
2023-05-07T05:17:52.841Z,2.50
2023-05-07T05:20:20.852Z,2.70
2023-05-07T05:22:50.036Z,2.93
2023-05-07T05:25:17.947Z,2.77
2023-05-07T05:27:45.770Z,2.70
2023-05-07T05:30:14.819Z,2.40
2023-05-07T05:32:42.662Z,2.20
2023-05-07T05:35:10.940Z,2.97
2023-05-07T05:37:38.835Z,2.80
2023-05-07T05:40:09.478Z,2.60
2023-05-07T05:42:37.687Z,2.30
2023-05-07T05:45:06.379Z,2.50
2023-05-07T05:47:34.656Z,2.77
2023-05-07T05:50:02.545Z,2.50
2023-05-07T05:52:30.973Z,2.50
2023-05-07T05:54:58.777Z,2.73
2023-05-07T05:57:28.757Z,2.50
2023-05-07T05:59:56.991Z,2.40
2023-05-07T06:02:24.988Z,2.77
2023-05-07T06:04:52.927Z,2.50
2023-05-07T06:07:20.812Z,2.53
2023-05-07T06:09:48.647Z,3.10
2023-05-07T06:12:16.571Z,2.77
2023-05-07T06:14:46.652Z,2.70
2023-05-07T06:17:14.463Z,3.10
2023-05-07T06:19:42.271Z,2.80
2023-05-07T06:22:10.152Z,2.70
2023-05-07T06:24:37.944Z,2.90
2023-05-07T06:27:05.769Z,3.17
2023-05-07T06:29:34.416Z,2.90
2023-05-07T06:32:10.228Z,3.37
2023-05-07T06:34:38.394Z,3.23
2023-05-07T06:37:06.208Z,3.10
2023-05-07T06:39:34.240Z,3.40
2023-05-07T06:42:02.779Z,3.17
2023-05-07T06:44:30.636Z,2.93
2023-05-07T06:46:58.974Z,3.43
2023-05-07T06:49:28.156Z,3.63
2023-05-07T06:51:56.568Z,3.33
2023-05-07T06:54:25.044Z,3.57
2023-05-07T06:56:52.888Z,3.23
2023-05-07T06:59:21.225Z,3.33
2023-05-07T07:01:49.118Z,3.23
2023-05-07T07:04:17.043Z,3.57
2023-05-07T07:06:47.573Z,3.20
2023-05-07T07:09:15.446Z,3.33
2023-05-07T07:11:43.283Z,3.47
2023-05-07T07:14:11.231Z,3.27
2023-05-07T07:16:39.205Z,3.47
2023-05-07T07:19:07.123Z,3.20
2023-05-07T07:21:34.930Z,3.50
2023-05-07T07:24:04.273Z,3.40
2023-05-07T07:26:32.293Z,3.10
2023-05-07T07:29:00.139Z,3.20
2023-05-07T07:31:28.046Z,3.60
2023-05-07T07:33:55.920Z,3.60
2023-05-07T07:36:27.359Z,3.43
2023-05-07T07:39:04.565Z,2.90
2023-05-07T07:41:32.346Z,3.23
2023-05-07T07:44:00.152Z,3.00
2023-05-07T07:46:28.633Z,3.10
2023-05-07T07:48:56.663Z,3.63
2023-05-07T07:51:24.482Z,3.17
2023-05-07T07:53:52.305Z,3.00
2023-05-07T07:56:21.636Z,3.22
2023-05-07T07:58:49.492Z,3.42
2023-05-07T08:01:18.112Z,3.70
2023-05-07T08:03:46.218Z,3.78
2023-05-07T08:06:15.298Z,3.50
2023-05-07T08:08:43.233Z,3.40
2023-05-07T08:11:11.073Z,3.53
2023-05-07T08:13:40.601Z,4.38
2023-05-07T08:16:08.626Z,3.30
2023-05-07T08:18:36.484Z,3.28
2023-05-07T08:21:04.415Z,3.40
2023-05-07T08:23:32.784Z,3.20
2023-05-07T08:26:00.759Z,3.35
2023-05-07T08:28:28.703Z,3.38
2023-05-07T08:31:00.890Z,3.10
2023-05-07T08:33:28.822Z,3.47
2023-05-07T08:35:56.639Z,2.63
2023-05-07T08:38:24.535Z,3.30
2023-05-07T08:40:52.389Z,3.20
2023-05-07T08:43:21.608Z,2.60
2023-05-07T08:45:55.452Z,3.30
2023-05-07T08:48:27.553Z,2.97
2023-05-07T08:50:55.564Z,2.72
2023-05-07T08:53:23.576Z,2.53
2023-05-07T08:55:51.648Z,2.83
2023-05-07T08:58:19.595Z,3.00
2023-05-07T09:00:48.838Z,2.80
2023-05-07T09:03:17.043Z,2.72
2023-05-07T09:05:46.247Z,2.90
2023-05-07T09:08:17.509Z,2.92
2023-05-07T09:10:46.217Z,3.00
2023-05-07T09:13:15.709Z,2.70
2023-05-07T09:15:43.702Z,2.60
2023-05-07T09:18:11.790Z,3.35
2023-05-07T09:20:39.752Z,2.92
2023-05-07T09:23:09.813Z,2.88
2023-05-07T09:25:38.492Z,2.78
2023-05-07T09:28:08.122Z,3.08
2023-05-07T09:30:36.388Z,2.83
2023-05-07T09:33:05.832Z,3.17
2023-05-07T09:35:33.687Z,3.03
2023-05-07T09:38:04.413Z,2.90
2023-05-07T09:40:33.877Z,3.17
2023-05-07T09:43:12.687Z,2.75
2023-05-07T09:45:40.640Z,3.40
2023-05-07T09:48:09.938Z,2.90
2023-05-07T09:50:42.306Z,2.75
2023-05-07T09:53:12.443Z,3.05
2023-05-07T09:55:41.908Z,2.53
2023-05-07T09:58:11.024Z,2.90
2023-05-07T10:00:41.825Z,3.03
2023-05-07T10:03:11.379Z,2.97
2023-05-07T10:05:40.319Z,2.95
2023-05-07T10:08:09.662Z,2.88
2023-05-07T10:10:37.676Z,3.22
2023-05-07T10:13:11.554Z,2.80
2023-05-07T10:15:39.784Z,3.00
2023-05-07T10:18:08.700Z,2.85
2023-05-07T10:20:38.317Z,3.28
2023-05-07T10:23:07.446Z,2.95
2023-05-07T10:25:35.623Z,2.97
2023-05-07T10:28:09.552Z,2.75
2023-05-07T10:30:46.964Z,2.60
2023-05-07T10:33:19.168Z,3.00
2023-05-07T10:35:48.699Z,2.90
2023-05-07T10:38:16.653Z,3.10
2023-05-07T10:40:47.904Z,2.80
2023-05-07T10:43:17.578Z,2.92
2023-05-07T10:45:45.859Z,3.53
2023-05-07T10:50:47.166Z,3.50
2023-05-07T10:53:28.475Z,3.70
2023-05-07T10:56:37.241Z,2.40
2023-05-07T10:59:42.968Z,2.20
2023-05-07T11:02:12.389Z,2.20
2023-05-07T11:04:42.526Z,2.00
2023-05-07T11:07:40.537Z,2.40
2023-05-07T11:10:09.383Z,2.23
2023-05-07T11:12:56.345Z,2.33
2023-05-07T11:15:44.322Z,2.30
2023-05-07T11:18:16.181Z,2.40
2023-05-07T11:20:54.200Z,2.63
2023-05-07T11:24:11.126Z,2.10
2023-05-07T11:26:47.960Z,2.30
2023-05-07T11:29:20.838Z,2.50
2023-05-07T11:31:55.272Z,2.30
2023-05-07T11:34:24.597Z,2.40
2023-05-07T11:36:52.576Z,2.20
2023-05-07T11:39:31.240Z,2.00
2023-05-07T11:41:59.316Z,2.30
2023-05-07T11:44:27.102Z,2.27
2023-05-07T11:46:56.304Z,2.20
2023-05-07T11:49:27.565Z,2.53
2023-05-07T11:51:55.895Z,2.20
2023-05-07T11:54:23.723Z,2.37
2023-05-07T11:56:51.609Z,2.80
2023-05-07T11:59:20.254Z,2.67
2023-05-07T12:01:49.075Z,2.70
2023-05-07T12:04:23.066Z,2.40
2023-05-07T12:06:56.929Z,3.43
2023-05-07T12:09:24.905Z,3.40
2023-05-07T12:11:54.706Z,6.33
2023-05-07T12:14:22.569Z,9.48
2023-05-07T12:16:50.573Z,4.90
2023-05-07T12:19:19.218Z,6.20
2023-05-07T12:21:48.475Z,4.40
2023-05-07T12:24:16.825Z,3.85
2023-05-07T12:26:45.780Z,4.00
2023-05-07T12:29:13.677Z,4.27
2023-05-07T12:31:43.107Z,3.47
2023-05-07T12:34:12.981Z,4.15
2023-05-07T12:36:41.971Z,3.50
2023-05-07T12:39:11.439Z,3.30
2023-05-07T12:41:55.476Z,4.50
2023-05-07T12:44:25.117Z,3.78
2023-05-07T12:46:53.633Z,3.73
2023-05-07T12:49:24.494Z,3.87
2023-05-07T12:51:53.257Z,3.13
2023-05-07T12:54:32.385Z,3.40
2023-05-07T12:57:04.798Z,3.50
2023-05-07T12:59:37.150Z,3.17
2023-05-07T13:02:05.436Z,3.03
2023-05-07T13:04:33.546Z,2.80
2023-05-07T13:07:01.846Z,2.97
2023-05-07T13:09:31.104Z,3.07
2023-05-07T13:12:01.007Z,3.10
2023-05-07T13:14:28.943Z,3.30
2023-05-07T13:16:56.799Z,3.53
2023-05-07T13:19:24.696Z,4.20
2023-05-07T13:21:52.509Z,4.13
2023-05-07T13:24:20.864Z,5.10
2023-05-07T13:26:50.026Z,4.27
2023-05-07T13:29:17.873Z,3.90
2023-05-07T13:31:47.185Z,3.77
2023-05-07T13:34:16.180Z,3.67
2023-05-07T13:36:44.065Z,3.93
2023-05-07T13:39:11.893Z,4.90
2023-05-07T13:41:39.712Z,4.10
2023-05-07T13:44:09.097Z,3.00
2023-05-07T13:46:36.982Z,3.30
2023-05-07T13:49:04.883Z,3.30
2023-05-07T13:51:32.859Z,3.10
2023-05-07T13:54:00.726Z,3.57
2023-05-07T13:56:29.261Z,3.70
2023-05-07T13:59:00.590Z,3.13
2023-05-07T14:01:30.480Z,3.03
2023-05-07T14:04:00.412Z,3.37
2023-05-07T14:06:28.457Z,3.10
2023-05-07T14:08:59.046Z,3.30
2023-05-07T14:11:26.936Z,3.17
2023-05-07T14:13:54.787Z,4.63
2023-05-07T14:16:22.724Z,4.27
2023-05-07T14:18:52.446Z,3.47
2023-05-07T14:21:20.323Z,2.50
2023-05-07T14:23:48.239Z,2.93
2023-05-07T14:26:16.205Z,2.83
2023-05-07T14:28:47.260Z,2.87
2023-05-07T14:31:15.319Z,3.00
2023-05-07T14:33:43.283Z,2.70
2023-05-07T14:36:12.516Z,3.23
2023-05-07T14:38:40.756Z,2.70
2023-05-07T14:41:08.660Z,3.20
2023-05-07T14:43:36.534Z,3.90
2023-05-07T14:46:04.458Z,3.07
2023-05-07T14:48:32.298Z,2.87
2023-05-07T14:51:00.149Z,2.30
2023-05-07T14:53:29.354Z,2.30
2023-05-07T14:55:57.394Z,2.57
2023-05-07T14:58:25.694Z,2.23
2023-05-07T15:00:53.539Z,2.20
2023-05-07T15:03:21.415Z,2.80
2023-05-07T15:05:51.751Z,2.37
2023-05-07T15:08:19.588Z,2.57
2023-05-07T15:10:48.913Z,3.00
2023-05-07T15:13:16.857Z,3.13
2023-05-07T15:15:47.361Z,2.97
2023-05-07T15:18:15.527Z,2.73
2023-05-07T15:20:43.918Z,2.73
2023-05-07T15:23:13.234Z,3.00
2023-05-07T15:25:41.302Z,2.43
2023-05-07T15:28:10.701Z,2.80
2023-05-07T15:30:38.498Z,3.03
2023-05-07T15:33:06.499Z,2.83
2023-05-07T15:35:34.487Z,2.77
2023-05-07T15:38:04.461Z,2.40
2023-05-07T15:40:32.406Z,2.60
2023-05-07T15:43:01.170Z,2.47
2023-05-07T15:45:30.882Z,2.83
2023-05-07T15:47:59.167Z,2.17
2023-05-07T15:50:27.301Z,2.77
2023-05-07T15:52:55.083Z,2.43
2023-05-07T15:55:23.086Z,2.53
2023-05-07T15:57:50.983Z,2.40
2023-05-07T16:00:19.299Z,2.47
2023-05-07T16:02:48.736Z,2.50
2023-05-07T16:05:16.640Z,2.30
2023-05-07T16:07:44.444Z,2.63
2023-05-07T16:10:12.977Z,2.47
2023-05-07T16:12:40.921Z,2.57
2023-05-07T16:15:09.701Z,2.43
2023-05-07T16:17:38.036Z,2.30
2023-05-07T16:20:09.185Z,2.03
2023-05-07T16:22:37.687Z,2.33
2023-05-07T16:25:06.251Z,2.70
2023-05-07T16:27:34.026Z,5.43
2023-05-07T16:30:02.012Z,2.60
2023-05-07T16:32:30.007Z,2.40
2023-05-07T16:34:57.973Z,3.20
2023-05-07T16:37:27.128Z,3.27
2023-05-07T16:39:56.464Z,3.80
2023-05-07T16:42:24.269Z,3.07
2023-05-07T16:44:52.165Z,2.40
2023-05-07T16:47:19.965Z,2.60
2023-05-07T16:49:48.186Z,2.57
2023-05-07T16:52:16.059Z,2.17
2023-05-07T16:54:45.338Z,2.30
2023-05-07T16:57:13.225Z,2.93
2023-05-07T16:59:41.043Z,3.00
2023-05-07T17:02:08.955Z,2.50
2023-05-07T17:04:36.855Z,2.40
2023-05-07T17:07:04.711Z,2.30
2023-05-07T17:09:32.708Z,2.30
2023-05-07T17:12:02.794Z,4.17
2023-05-07T17:14:30.649Z,2.83
2023-05-07T17:16:58.497Z,2.63
2023-05-07T17:19:26.398Z,4.20
2023-05-07T17:21:54.264Z,7.03
2023-05-07T17:24:22.224Z,3.83
2023-05-07T17:26:50.092Z,3.70
2023-05-07T17:29:19.933Z,3.07
2023-05-07T17:31:47.723Z,2.90
2023-05-07T17:34:15.892Z,3.30
2023-05-07T17:36:43.779Z,3.17
2023-05-07T17:39:11.690Z,2.70
2023-05-07T17:41:39.512Z,2.70
2023-05-07T17:44:07.322Z,2.57
2023-05-07T17:46:36.461Z,2.70
2023-05-07T17:49:04.266Z,3.30
2023-05-07T17:51:42.151Z,2.87
2023-05-07T17:54:18.268Z,2.70
2023-05-07T17:56:46.095Z,2.43
2023-05-07T17:59:13.887Z,2.70
2023-05-07T18:01:44.346Z,2.97
2023-05-07T18:04:12.281Z,2.80
2023-05-07T18:06:41.964Z,2.93
2023-05-07T18:09:10.045Z,5.33
2023-05-07T18:11:37.998Z,3.73
2023-05-07T18:14:05.860Z,2.83
2023-05-07T18:16:33.848Z,3.03
2023-05-07T18:19:03.384Z,3.60
2023-05-07T18:21:31.674Z,3.10
2023-05-07T18:23:59.480Z,2.93
2023-05-07T18:26:27.337Z,2.80
2023-05-07T18:28:55.227Z,3.27
2023-05-07T18:31:23.131Z,3.00
2023-05-07T18:33:52.718Z,3.20
2023-05-07T18:36:21.873Z,2.97
2023-05-07T18:38:49.663Z,3.57
2023-05-07T18:41:17.718Z,4.73
2023-05-07T18:43:45.535Z,4.30
2023-05-07T18:46:13.459Z,5.03
2023-05-07T18:48:41.338Z,5.00
2023-05-07T18:51:12.550Z,4.77
2023-05-07T18:53:41.806Z,4.97
2023-05-07T18:56:09.623Z,6.10
2023-05-07T18:58:37.446Z,10.17
2023-05-07T19:01:08.135Z,3.50
2023-05-07T19:03:36.439Z,3.57
2023-05-07T19:06:05.714Z,3.10
2023-05-07T19:08:33.717Z,3.10
2023-05-07T19:11:03.519Z,3.10
2023-05-07T19:13:31.568Z,3.30
2023-05-07T19:15:59.564Z,3.27
2023-05-07T19:18:27.448Z,3.07
2023-05-07T19:20:55.515Z,3.73
2023-05-07T19:23:23.510Z,4.70
2023-05-07T19:25:51.420Z,4.70
2023-05-07T19:28:20.961Z,4.27
2023-05-07T19:30:49.809Z,4.60
2023-05-07T19:33:17.685Z,3.63
2023-05-07T19:35:45.837Z,3.67
2023-05-07T19:38:13.668Z,3.20
2023-05-07T19:40:41.472Z,3.60
2023-05-07T19:43:09.253Z,3.00
2023-05-07T19:45:42.777Z,3.40
2023-05-07T19:48:10.699Z,2.70
2023-05-07T19:50:38.607Z,3.70
2023-05-07T19:53:06.453Z,2.10
2023-05-07T19:55:34.284Z,2.50
2023-05-07T19:58:02.074Z,2.37
2023-05-07T20:00:32.650Z,2.43
2023-05-07T20:03:01.909Z,2.20
2023-05-07T20:05:29.864Z,2.20
2023-05-07T20:07:58.380Z,2.20
2023-05-07T20:10:26.174Z,2.43
2023-05-07T20:12:53.990Z,2.00
2023-05-07T20:15:22.834Z,2.60
2023-05-07T20:17:50.702Z,3.33
2023-05-07T20:20:20.103Z,2.73
2023-05-07T20:22:47.906Z,2.30
2023-05-07T20:25:15.936Z,2.20
2023-05-07T20:27:43.773Z,2.20
2023-05-07T20:30:12.735Z,2.10
2023-05-07T20:32:41.094Z,2.20
2023-05-07T20:35:09.385Z,2.03
2023-05-07T20:37:40.280Z,2.40
2023-05-07T20:40:09.677Z,2.17
2023-05-07T20:42:37.615Z,4.07
2023-05-07T20:45:06.224Z,3.37
2023-05-07T20:47:34.171Z,2.90
2023-05-07T20:50:02.168Z,2.50
2023-05-07T20:52:30.377Z,1.93
2023-05-07T20:54:59.554Z,2.37
2023-05-07T20:57:27.367Z,2.40
2023-05-07T20:59:55.384Z,2.47
2023-05-07T21:02:23.251Z,2.10
2023-05-07T21:04:52.205Z,2.50
2023-05-07T21:07:20.050Z,2.73
2023-05-07T21:09:47.826Z,2.37
2023-05-07T21:12:16.999Z,2.80
2023-05-07T21:14:44.862Z,2.60
2023-05-07T21:17:12.754Z,2.40
2023-05-07T21:19:43.059Z,2.50
2023-05-07T21:22:10.960Z,2.30
2023-05-07T21:24:38.759Z,2.40
2023-05-07T21:27:06.552Z,2.80
2023-05-07T21:29:35.774Z,2.73
2023-05-07T21:32:05.339Z,2.50
2023-05-07T21:34:33.186Z,2.40
2023-05-07T21:37:01.022Z,2.90
2023-05-07T21:39:28.814Z,3.00
2023-05-07T21:41:56.883Z,2.73
2023-05-07T21:44:24.675Z,2.70
2023-05-07T21:46:53.812Z,2.97
2023-05-07T21:49:21.603Z,3.43
2023-05-07T21:51:49.398Z,2.77
2023-05-07T21:54:17.276Z,3.03
2023-05-07T21:56:45.529Z,2.30
2023-05-07T21:59:13.371Z,2.50
2023-05-07T22:01:41.326Z,4.60
2023-05-07T22:04:11.147Z,3.60
2023-05-07T22:06:39.072Z,2.70
2023-05-07T22:09:07.871Z,2.77
2023-05-07T22:11:35.709Z,3.00
2023-05-07T22:14:03.619Z,2.43
2023-05-07T22:16:31.757Z,2.73
2023-05-07T22:18:59.654Z,2.50
2023-05-07T22:21:28.865Z,2.60
2023-05-07T22:23:56.648Z,2.50
2023-05-07T22:26:24.444Z,2.87
2023-05-07T22:28:52.294Z,2.80
2023-05-07T22:31:20.127Z,3.00
2023-05-07T22:33:47.937Z,2.77
2023-05-07T22:36:15.740Z,2.80
2023-05-07T22:38:45.001Z,2.70
2023-05-07T22:41:12.846Z,2.37
2023-05-07T22:43:40.690Z,2.87
2023-05-07T22:46:08.666Z,2.77
2023-05-07T22:48:36.644Z,2.63
2023-05-07T22:51:04.560Z,3.17
2023-05-07T22:53:32.425Z,3.20
2023-05-07T22:56:06.133Z,3.03
2023-05-07T22:58:34.004Z,3.47
2023-05-07T23:01:02.362Z,3.07
2023-05-07T23:03:30.618Z,3.30
2023-05-07T23:05:58.463Z,3.40
2023-05-07T23:08:26.262Z,3.83
2023-05-07T23:10:54.075Z,3.20
2023-05-07T23:13:23.388Z,3.17
2023-05-07T23:15:51.774Z,3.47
2023-05-07T23:18:19.844Z,3.20
2023-05-07T23:20:47.638Z,3.40
2023-05-07T23:23:15.481Z,4.17
2023-05-07T23:25:43.290Z,4.27
2023-05-07T23:28:11.092Z,4.27
2023-05-07T23:30:41.237Z,4.33
2023-05-07T23:33:09.197Z,3.80
2023-05-07T23:35:37.060Z,4.53
2023-05-07T23:38:04.880Z,3.97
2023-05-07T23:40:32.693Z,4.20
2023-05-07T23:43:00.609Z,3.67
2023-05-07T23:45:28.432Z,3.83
2023-05-07T23:47:57.680Z,3.73
2023-05-07T23:50:25.549Z,3.07
2023-05-07T23:52:53.415Z,3.13
2023-05-07T23:55:21.291Z,3.50
2023-05-07T23:57:49.123Z,3.30
